createdAt,value
2023-04-29T00:01:31.351Z,45.94
2023-04-29T00:06:33.696Z,46.56
2023-04-29T00:11:32.924Z,46.68
2023-04-29T00:16:31.309Z,46.88
2023-04-29T00:21:32.973Z,47.64
2023-04-29T00:26:30.343Z,47.67
2023-04-29T00:31:27.718Z,47.78
2023-04-29T00:36:25.872Z,48.20
2023-04-29T00:41:26.918Z,48.25
2023-04-29T00:46:27.497Z,48.14
2023-04-29T00:51:54.276Z,48.80
2023-04-29T00:56:59.010Z,48.92
2023-04-29T01:01:56.750Z,48.97
2023-04-29T01:07:08.454Z,48.90
2023-04-29T01:12:31.070Z,48.81
2023-04-29T01:17:44.136Z,48.37
2023-04-29T01:22:44.648Z,48.05
2023-04-29T01:27:52.950Z,48.43
2023-04-29T01:32:58.253Z,48.68
2023-04-29T01:38:02.976Z,48.33
2023-04-29T01:43:11.319Z,48.12
2023-04-29T01:48:14.075Z,48.01
2023-04-29T01:53:12.309Z,48.13
2023-04-29T01:58:13.722Z,48.43
2023-04-29T02:03:22.107Z,48.46
2023-04-29T02:08:26.761Z,47.83
2023-04-29T02:13:33.178Z,47.53
2023-04-29T02:18:33.895Z,47.58
2023-04-29T02:23:31.499Z,47.32
2023-04-29T02:28:31.190Z,47.70
2023-04-29T02:33:31.292Z,48.13
2023-04-29T02:38:45.569Z,47.87
2023-04-29T02:43:44.067Z,47.38
2023-04-29T02:48:44.052Z,47.00
2023-04-29T02:53:49.046Z,47.04
2023-04-29T02:58:47.191Z,46.86
2023-04-29T03:03:52.465Z,46.82
2023-04-29T03:09:02.836Z,46.38
2023-04-29T03:14:17.928Z,46.54
2023-04-29T03:19:18.823Z,46.32
2023-04-29T03:24:18.851Z,46.41
2023-04-29T03:29:17.158Z,46.44
2023-04-29T03:34:14.759Z,46.25
2023-04-29T03:39:17.615Z,46.01
2023-04-29T03:44:25.686Z,45.82
2023-04-29T03:49:35.241Z,45.69
2023-04-29T03:54:35.275Z,45.58
2023-04-29T03:59:32.649Z,45.33
2023-04-29T04:04:36.064Z,44.85
2023-04-29T04:09:37.894Z,44.81
2023-04-29T04:14:39.526Z,44.55
2023-04-29T04:20:02.290Z,44.54
2023-04-29T04:25:49.875Z,43.68
2023-04-29T04:31:11.102Z,42.72
2023-04-29T04:36:18.513Z,42.31
2023-04-29T04:41:18.083Z,42.40
2023-04-29T04:46:19.354Z,42.11
2023-04-29T04:51:53.434Z,41.67
2023-04-29T04:57:00.571Z,41.53
2023-04-29T05:02:09.316Z,40.38
2023-04-29T05:07:08.731Z,40.36
2023-04-29T05:12:53.922Z,39.34
2023-04-29T05:17:55.380Z,38.48
2023-04-29T05:23:10.356Z,37.57
2023-04-29T05:28:20.546Z,36.83
2023-04-29T05:33:20.759Z,35.35
2023-04-29T05:38:29.830Z,28.62
2023-04-29T05:43:44.993Z,26.37
2023-04-29T05:49:03.448Z,25.74
2023-04-29T05:54:16.316Z,22.87
2023-04-29T05:59:27.042Z,23.68
2023-04-29T06:04:55.764Z,21.45
2023-04-29T06:11:00.704Z,22.55
2023-04-29T06:16:30.837Z,23.11
2023-04-29T06:21:54.817Z,22.17
2023-04-29T06:27:04.991Z,20.85
2023-04-29T06:32:20.130Z,19.19
2023-04-29T06:38:19.097Z,20.65
2023-04-29T06:49:09.502Z,19.61
2023-04-29T06:54:11.952Z,20.27
2023-04-29T07:00:35.326Z,20.92
2023-04-29T07:18:04.068Z,20.85
2023-04-29T07:23:22.569Z,19.65
2023-04-29T07:28:52.198Z,19.69
2023-04-29T07:34:34.128Z,19.80
2023-04-29T07:39:50.968Z,20.18
2023-04-29T07:45:03.601Z,21.21
2023-04-29T07:57:02.448Z,20.08
2023-04-29T08:02:19.333Z,19.22
2023-04-29T08:08:04.416Z,19.52
2023-04-29T08:27:00.455Z,17.45
2023-04-29T08:32:19.905Z,17.60
2023-04-29T08:43:58.864Z,19.41
2023-04-29T09:03:31.233Z,18.62
2023-04-29T09:44:32.098Z,18.01
2023-04-29T09:51:01.041Z,18.81
2023-04-29T10:04:38.821Z,16.96
2023-04-29T10:55:55.789Z,18.35
2023-04-29T11:29:59.132Z,22.01
2023-04-29T11:35:19.928Z,22.85
2023-04-29T11:40:21.375Z,22.36
2023-04-29T11:45:37.302Z,22.52
2023-04-29T11:50:47.260Z,22.41
2023-04-29T11:55:46.948Z,23.24
2023-04-29T12:01:43.979Z,23.47
2023-04-29T12:14:01.208Z,24.65
2023-04-29T12:26:47.950Z,24.70
2023-04-29T12:38:21.984Z,24.38
2023-04-29T14:01:05.110Z,26.30
2023-04-29T14:05:58.633Z,26.87
2023-04-29T14:10:55.471Z,26.97
2023-04-29T14:15:56.121Z,26.63
2023-04-29T14:20:54.072Z,26.69
2023-04-29T14:25:51.447Z,26.53
2023-04-29T14:30:48.231Z,26.15
2023-04-29T14:35:46.290Z,26.33
2023-04-29T14:40:43.038Z,26.33
2023-04-29T14:45:40.455Z,26.52
2023-04-29T14:50:37.650Z,26.24
2023-04-29T14:55:35.064Z,25.73
2023-04-29T15:00:31.800Z,25.20
2023-04-29T15:05:29.885Z,26.17
2023-04-29T15:10:26.899Z,26.31
2023-04-29T15:15:24.388Z,26.83
2023-04-29T15:20:21.330Z,26.59
2023-04-29T15:25:18.320Z,26.92
2023-04-29T15:30:16.064Z,27.26
2023-04-29T15:35:13.801Z,27.28
2023-04-29T15:40:11.695Z,28.08
2023-04-29T15:45:09.716Z,28.35
2023-04-29T15:50:08.920Z,28.65
2023-04-29T15:55:07.336Z,29.39
2023-04-29T16:00:04.778Z,29.99
2023-04-29T16:05:02.503Z,30.45
2023-04-29T16:09:59.460Z,31.28
2023-04-29T16:14:57.092Z,31.79
2023-04-29T16:19:56.471Z,32.04
2023-04-29T16:24:53.482Z,32.51
2023-04-29T16:29:50.441Z,32.66
2023-04-29T16:34:50.853Z,33.00
2023-04-29T16:39:48.261Z,33.34
2023-04-29T16:44:46.329Z,33.06
2023-04-29T16:49:43.564Z,32.98
2023-04-29T16:54:41.264Z,32.82
2023-04-29T16:59:38.101Z,32.79
2023-04-29T17:04:35.420Z,32.48
2023-04-29T17:09:32.729Z,32.42
2023-04-29T17:14:30.362Z,32.02
2023-04-29T17:19:27.409Z,32.09
2023-04-29T17:24:24.832Z,32.18
2023-04-29T17:29:21.805Z,32.28
2023-04-29T17:34:23.203Z,32.55
2023-04-29T17:39:20.220Z,32.88
2023-04-29T17:44:17.053Z,33.22
2023-04-29T17:49:13.766Z,33.14
2023-04-29T17:54:14.180Z,33.18
2023-04-29T17:59:12.970Z,33.64
2023-04-29T18:04:09.886Z,33.92
2023-04-29T18:09:12.540Z,34.36
2023-04-29T18:14:10.323Z,35.10
2023-04-29T18:19:07.150Z,35.04
2023-04-29T18:24:04.554Z,35.90
2023-04-29T18:29:01.762Z,35.98
2023-04-29T18:33:59.333Z,36.24
2023-04-29T18:38:58.833Z,36.59
2023-04-29T18:43:55.641Z,37.08
2023-04-29T18:48:52.402Z,37.35
2023-04-29T18:53:50.072Z,37.56
2023-04-29T18:58:49.150Z,37.33
2023-04-29T19:03:45.954Z,37.18
2023-04-29T19:08:45.858Z,36.99
2023-04-29T19:13:47.122Z,36.99
2023-04-29T19:18:46.607Z,37.04
2023-04-29T19:23:43.696Z,36.69
2023-04-29T19:28:40.494Z,36.94
2023-04-29T19:33:37.968Z,36.73
2023-04-29T19:38:34.781Z,37.01
2023-04-29T19:43:31.709Z,36.92
2023-04-29T19:48:28.590Z,37.03
2023-04-29T19:53:26.361Z,37.04
2023-04-29T19:58:23.166Z,37.36
2023-04-29T20:03:20.805Z,37.25
2023-04-29T20:08:17.759Z,37.10
2023-04-29T20:13:15.558Z,37.03
2023-04-29T20:18:13.508Z,36.98
2023-04-29T20:23:10.266Z,36.83
2023-04-29T20:28:08.386Z,36.85
2023-04-29T20:33:07.092Z,36.78
2023-04-29T20:38:06.671Z,36.94
2023-04-29T20:43:04.400Z,36.96
2023-04-29T20:48:01.286Z,37.10
2023-04-29T20:52:58.864Z,36.82
2023-04-29T20:57:55.972Z,36.85
2023-04-29T21:02:52.772Z,37.10
2023-04-29T21:07:52.704Z,37.47
2023-04-29T21:12:50.376Z,38.00
2023-04-29T21:17:47.208Z,38.58
2023-04-29T21:22:44.625Z,38.79
2023-04-29T21:27:41.364Z,39.36
2023-04-29T21:32:38.903Z,39.44
2023-04-29T21:37:35.855Z,39.96
2023-04-29T21:42:34.136Z,40.36
2023-04-29T21:47:31.182Z,41.02
2023-04-29T21:52:30.670Z,41.61
2023-04-29T21:57:42.616Z,41.83
2023-04-29T22:02:42.771Z,42.28
2023-04-29T22:07:40.461Z,42.77
2023-04-29T22:12:37.269Z,43.19
2023-04-29T22:17:34.132Z,43.98
2023-04-29T22:22:31.069Z,44.33
2023-04-29T22:27:28.789Z,44.81
2023-04-29T22:32:25.623Z,45.17
2023-04-29T22:37:22.371Z,45.64
2023-04-29T22:42:19.169Z,46.02
2023-04-29T22:47:16.706Z,46.35
2023-04-29T22:52:13.461Z,46.79
2023-04-29T22:57:10.151Z,47.01
2023-04-29T23:02:07.039Z,47.29
2023-04-29T23:07:04.507Z,47.57
2023-04-29T23:12:02.150Z,48.14
2023-04-29T23:16:58.958Z,48.25
2023-04-29T23:21:55.882Z,48.52
2023-04-29T23:26:53.371Z,48.83
2023-04-29T23:31:50.366Z,49.13
2023-04-29T23:36:47.157Z,49.45
2023-04-29T23:41:43.931Z,49.49
2023-04-29T23:46:41.420Z,49.80
2023-04-29T23:51:38.347Z,50.00
2023-04-29T23:56:35.195Z,50.21
